createdAt,value
2023-11-18T00:00:13.878Z,2.56
2023-11-18T00:03:16.437Z,2.55
2023-11-18T00:06:18.564Z,2.53
2023-11-18T00:09:21.522Z,2.48
2023-11-18T00:12:25.561Z,2.34
2023-11-18T00:15:27.925Z,2.34
2023-11-18T00:18:30.044Z,2.66
2023-11-18T00:21:32.396Z,2.56
2023-11-18T00:24:36.279Z,2.50
2023-11-18T00:27:39.298Z,2.68
2023-11-18T00:30:41.400Z,2.72
2023-11-18T00:33:44.441Z,2.52
2023-11-18T00:36:46.559Z,2.48
2023-11-18T00:39:48.573Z,2.23
2023-11-18T00:42:51.207Z,2.23
2023-11-18T00:45:53.382Z,2.48
2023-11-18T00:48:59.437Z,2.45
2023-11-18T00:52:01.585Z,2.43
2023-11-18T00:55:05.105Z,2.39
2023-11-18T00:58:07.198Z,2.15
2023-11-18T01:01:09.351Z,2.01
2023-11-18T01:04:11.543Z,1.96
2023-11-18T01:07:13.736Z,2.01
2023-11-18T01:10:15.839Z,2.26
2023-11-18T01:13:18.298Z,2.33
2023-11-18T01:16:21.459Z,2.39
2023-11-18T01:19:24.826Z,2.32
2023-11-18T01:22:27.027Z,2.35
2023-11-18T01:25:29.236Z,2.52
2023-11-18T01:28:34.387Z,2.64
2023-11-18T01:31:47.624Z,2.62
2023-11-18T01:34:54.901Z,2.49
2023-11-18T01:37:57.038Z,2.55
2023-11-18T01:40:59.108Z,2.62
2023-11-18T01:44:01.345Z,2.52
2023-11-18T01:47:07.221Z,2.37
2023-11-18T01:50:12.783Z,2.50
2023-11-18T01:53:18.393Z,2.30
2023-11-18T01:56:22.567Z,2.13
2023-11-18T01:59:27.036Z,2.46
2023-11-18T02:02:29.294Z,2.44
2023-11-18T02:05:31.416Z,2.82
2023-11-18T02:08:36.513Z,2.88
2023-11-18T02:11:44.617Z,2.61
2023-11-18T02:14:47.214Z,2.86
2023-11-18T02:17:51.447Z,2.85
2023-11-18T02:20:58.671Z,3.05
2023-11-18T02:24:00.804Z,2.94
2023-11-18T02:27:02.868Z,3.00
2023-11-18T02:30:07.659Z,3.14
2023-11-18T02:33:22.555Z,3.08
2023-11-18T02:36:37.305Z,2.93
2023-11-18T02:39:46.723Z,2.76
2023-11-18T02:42:54.495Z,2.92
2023-11-18T02:45:59.267Z,3.06
2023-11-18T02:49:03.769Z,3.02
2023-11-18T02:52:06.450Z,2.85
2023-11-18T02:55:10.021Z,3.01
2023-11-18T02:58:12.510Z,2.98
2023-11-18T03:01:14.540Z,2.81
2023-11-18T03:04:17.299Z,3.10
2023-11-18T03:07:19.388Z,2.93
2023-11-18T03:10:24.455Z,2.97
2023-11-18T03:13:26.612Z,2.95
2023-11-18T03:16:28.745Z,2.85
2023-11-18T03:19:30.921Z,2.99
2023-11-18T03:22:33.085Z,2.93
2023-11-18T03:25:35.293Z,2.95
2023-11-18T03:28:39.088Z,2.91
2023-11-18T03:31:41.276Z,2.91
2023-11-18T03:34:43.363Z,2.77
2023-11-18T03:37:45.480Z,2.83
2023-11-18T03:40:47.861Z,2.58
2023-11-18T03:43:49.933Z,2.54
2023-11-18T03:46:52.413Z,2.41
2023-11-18T03:49:55.651Z,2.33
2023-11-18T03:52:57.779Z,2.55
2023-11-18T03:56:00.315Z,2.52
2023-11-18T03:59:02.402Z,2.54
2023-11-18T04:02:04.740Z,2.66
2023-11-18T04:05:09.525Z,2.56
2023-11-18T04:08:12.984Z,2.74
2023-11-18T04:11:15.940Z,2.62
2023-11-18T04:14:18.164Z,2.73
2023-11-18T04:17:20.457Z,3.10
2023-11-18T04:20:22.761Z,2.94
2023-11-18T04:23:24.881Z,2.89
2023-11-18T04:26:26.980Z,3.13
2023-11-18T04:29:29.277Z,3.04
2023-11-18T04:32:34.386Z,2.98
2023-11-18T04:35:36.449Z,2.95
2023-11-18T04:38:38.567Z,3.05
2023-11-18T04:41:40.716Z,3.19
2023-11-18T04:44:43.838Z,2.95
2023-11-18T04:47:46.292Z,2.91
2023-11-18T04:50:48.845Z,2.78
2023-11-18T04:53:50.918Z,2.64
2023-11-18T04:56:53.630Z,2.67
2023-11-18T04:59:56.047Z,2.52
2023-11-18T05:02:59.764Z,2.33
2023-11-18T05:06:02.108Z,2.56
2023-11-18T05:09:09.009Z,2.69
2023-11-18T05:12:11.148Z,2.76
2023-11-18T05:15:14.173Z,2.77
2023-11-18T05:18:17.276Z,2.78
2023-11-18T05:21:19.994Z,2.83
2023-11-18T05:24:22.015Z,2.59
2023-11-18T05:27:24.236Z,2.95
2023-11-18T05:30:27.267Z,3.22
2023-11-18T05:33:30.187Z,3.07
2023-11-18T05:36:38.678Z,3.06
2023-11-18T05:39:45.234Z,2.94
2023-11-18T05:42:49.589Z,3.08
2023-11-18T05:46:10.161Z,2.99
2023-11-18T05:49:14.860Z,3.00
2023-11-18T05:52:16.877Z,3.03
2023-11-18T05:55:18.803Z,3.16
2023-11-18T05:58:20.882Z,3.12
2023-11-18T06:01:23.471Z,3.08
2023-11-18T06:04:26.974Z,3.06
2023-11-18T06:07:30.441Z,2.98
2023-11-18T06:10:33.512Z,2.96
2023-11-18T06:13:37.929Z,2.91
2023-11-18T06:16:43.400Z,2.82
2023-11-18T06:19:45.535Z,2.80
2023-11-18T06:22:47.584Z,2.80
2023-11-18T06:25:49.628Z,2.89
2023-11-18T06:28:51.635Z,2.90
2023-11-18T06:31:53.670Z,2.93
2023-11-18T06:36:21.550Z,3.13
2023-11-18T06:39:56.978Z,3.07
2023-11-18T06:43:04.253Z,3.12
2023-11-18T06:46:31.593Z,3.41
2023-11-18T06:50:14.355Z,3.27
2023-11-18T06:53:30.811Z,3.25
2023-11-18T06:56:36.594Z,3.41
2023-11-18T06:59:41.166Z,3.44
2023-11-18T07:02:56.190Z,3.31
2023-11-18T07:10:23.688Z,3.54
2023-11-18T07:13:40.328Z,3.72
2023-11-18T07:17:17.170Z,3.84
2023-11-18T07:21:22.636Z,3.70
2023-11-18T07:24:33.758Z,3.90
2023-11-18T07:27:38.600Z,3.86
2023-11-18T07:30:51.040Z,3.84
2023-11-18T07:33:54.099Z,3.87
2023-11-18T07:36:59.266Z,4.04
2023-11-18T07:40:09.974Z,3.91
2023-11-18T07:43:17.312Z,4.08
2023-11-18T07:46:19.468Z,4.04
2023-11-18T07:49:22.264Z,4.00
2023-11-18T07:52:25.211Z,3.99
2023-11-18T07:55:27.290Z,3.97
2023-11-18T07:58:29.290Z,4.01
2023-11-18T08:01:31.860Z,4.04
2023-11-18T08:04:34.053Z,3.96
2023-11-18T08:07:36.632Z,3.86
2023-11-18T08:10:40.534Z,4.21
2023-11-18T08:13:42.654Z,4.24
2023-11-18T08:16:44.856Z,4.18
2023-11-18T08:19:47.848Z,4.31
2023-11-18T08:22:50.201Z,4.10
2023-11-18T08:25:52.273Z,4.21
2023-11-18T08:28:54.764Z,4.10
2023-11-18T08:31:56.953Z,4.19
2023-11-18T08:34:59.124Z,3.93
2023-11-18T08:38:03.126Z,4.19
2023-11-18T08:41:11.324Z,4.23
2023-11-18T08:44:22.217Z,4.12
2023-11-18T08:47:26.937Z,4.43
2023-11-18T08:50:30.094Z,4.07
2023-11-18T08:53:37.338Z,4.43
2023-11-18T08:56:43.306Z,4.33
2023-11-18T08:59:45.919Z,4.61
2023-11-18T09:02:54.061Z,4.54
2023-11-18T09:05:59.414Z,4.59
2023-11-18T09:09:07.391Z,4.51
2023-11-18T09:12:09.812Z,4.44
2023-11-18T09:15:19.346Z,4.47
2023-11-18T09:18:23.323Z,4.59
2023-11-18T09:21:30.821Z,4.51
2023-11-18T09:24:35.566Z,4.55
2023-11-18T09:27:39.848Z,4.37
2023-11-18T09:30:58.878Z,4.30
2023-11-18T09:34:01.418Z,4.33
2023-11-18T09:37:05.426Z,4.30
2023-11-18T09:40:14.933Z,4.26
2023-11-18T09:43:18.191Z,4.23
2023-11-18T09:46:32.585Z,4.29
2023-11-18T09:49:57.716Z,4.43
2023-11-18T09:53:08.249Z,4.49
2023-11-18T09:56:27.810Z,4.64
2023-11-18T09:59:37.335Z,4.62
2023-11-18T10:02:42.790Z,4.59
2023-11-18T10:05:47.072Z,4.71
2023-11-18T10:08:54.706Z,4.44
2023-11-18T10:12:07.013Z,4.73
2023-11-18T10:15:20.360Z,4.89
2023-11-18T10:18:24.516Z,4.78
2023-11-18T10:21:42.672Z,4.98
2023-11-18T10:24:55.892Z,5.02
2023-11-18T10:28:02.501Z,4.97
2023-11-18T10:31:10.969Z,4.91
2023-11-18T10:34:17.226Z,5.18
2023-11-18T10:37:19.323Z,5.29
2023-11-18T10:40:25.445Z,5.21
2023-11-18T10:43:30.133Z,5.26
2023-11-18T10:46:33.563Z,5.12
2023-11-18T10:49:38.767Z,5.26
2023-11-18T10:52:42.687Z,5.18
2023-11-18T10:55:45.427Z,5.08
2023-11-18T10:58:47.882Z,4.63
2023-11-18T11:01:53.113Z,5.07
2023-11-18T11:04:55.306Z,5.10
2023-11-18T11:07:58.508Z,5.08
2023-11-18T11:11:04.906Z,5.05
2023-11-18T11:14:12.116Z,5.17
2023-11-18T11:17:27.000Z,5.23
2023-11-18T11:20:36.490Z,5.21
2023-11-18T11:23:55.437Z,5.21
2023-11-18T11:27:07.142Z,5.09
2023-11-18T11:30:26.665Z,5.23
2023-11-18T11:34:00.294Z,5.08
2023-11-18T11:37:04.675Z,5.14
2023-11-18T11:40:11.858Z,5.11
2023-11-18T11:43:17.196Z,5.16
2023-11-18T11:46:26.041Z,5.31
2023-11-18T11:49:38.323Z,5.48
2023-11-18T11:52:50.253Z,5.34
2023-11-18T11:55:54.769Z,5.22
2023-11-18T11:59:01.241Z,5.31
2023-11-18T12:02:09.008Z,5.38
2023-11-18T12:05:20.596Z,5.35
2023-11-18T12:08:24.567Z,5.39
2023-11-18T12:11:29.417Z,5.38
2023-11-18T12:14:39.304Z,5.53
2023-11-18T12:18:04.789Z,5.48
2023-11-18T12:21:12.648Z,5.54
2023-11-18T12:24:20.203Z,5.40
2023-11-18T12:27:40.826Z,5.37
2023-11-18T12:30:53.731Z,5.31
2023-11-18T12:33:55.821Z,5.33
2023-11-18T12:37:35.994Z,5.36
2023-11-18T12:41:01.302Z,5.33
2023-11-18T12:44:19.856Z,5.33
2023-11-18T12:47:29.953Z,5.31
2023-11-18T12:50:37.113Z,5.31
2023-11-18T12:53:39.745Z,5.31
2023-11-18T12:56:45.467Z,5.34
2023-11-18T12:59:47.790Z,5.44
2023-11-18T13:02:50.053Z,5.42
2023-11-18T13:05:53.412Z,5.48
2023-11-18T13:08:56.082Z,5.43
2023-11-18T13:12:03.018Z,5.47
2023-11-18T13:15:09.979Z,5.36
2023-11-18T13:18:13.634Z,5.18
2023-11-18T13:21:17.813Z,5.26
2023-11-18T13:24:19.882Z,5.30
2023-11-18T13:27:24.315Z,5.36
2023-11-18T13:30:26.274Z,5.24
2023-11-18T13:33:29.203Z,5.42
2023-11-18T13:36:33.307Z,5.35
2023-11-18T13:39:39.883Z,5.38
2023-11-18T13:42:43.425Z,5.26
2023-11-18T13:45:53.413Z,5.09
2023-11-18T13:48:55.532Z,5.34
2023-11-18T13:51:58.795Z,4.92
2023-11-18T13:55:01.745Z,5.18
2023-11-18T13:58:06.295Z,5.28
2023-11-18T14:01:09.610Z,5.24
2023-11-18T14:04:12.030Z,5.29
2023-11-18T14:07:18.731Z,5.36
2023-11-18T14:10:20.918Z,5.40
2023-11-18T14:13:23.528Z,5.36
2023-11-18T14:16:27.558Z,5.28
2023-11-18T14:19:33.273Z,5.47
2023-11-18T14:22:35.604Z,5.41
2023-11-18T14:25:38.762Z,5.34
2023-11-18T14:28:41.953Z,5.28
2023-11-18T14:31:45.550Z,5.14
2023-11-18T14:34:50.290Z,4.98
2023-11-18T14:37:52.438Z,4.76
2023-11-18T14:40:54.933Z,4.94
2023-11-18T14:43:58.804Z,4.75
2023-11-18T14:47:01.519Z,4.61
2023-11-18T14:50:04.439Z,4.69
2023-11-18T14:53:07.291Z,4.54
2023-11-18T14:56:10.220Z,4.32
2023-11-18T14:59:13.712Z,4.17
2023-11-18T15:02:16.252Z,4.14
2023-11-18T15:05:19.872Z,4.04
2023-11-18T15:08:22.086Z,3.73
2023-11-18T15:11:24.932Z,3.79
2023-11-18T15:14:27.223Z,3.62
2023-11-18T15:17:41.284Z,3.34
2023-11-18T15:20:48.966Z,3.49
2023-11-18T15:23:51.544Z,3.42
2023-11-18T15:26:53.603Z,3.34
2023-11-18T15:29:56.355Z,3.66
2023-11-18T15:32:59.051Z,3.62
2023-11-18T15:36:02.704Z,3.60
2023-11-18T15:39:05.679Z,3.29
2023-11-18T15:42:08.580Z,3.27
2023-11-18T15:45:12.312Z,3.20
2023-11-18T15:48:16.090Z,3.02
2023-11-18T15:51:21.168Z,2.88
2023-11-18T15:54:23.311Z,2.71
2023-11-18T15:57:25.346Z,2.57
2023-11-18T16:00:29.796Z,2.39
2023-11-18T16:03:32.349Z,2.40
2023-11-18T16:06:34.634Z,2.41
2023-11-18T16:09:36.885Z,2.31
2023-11-18T16:12:39.084Z,2.15
2023-11-18T16:15:42.381Z,2.16
2023-11-18T16:18:44.662Z,2.07
2023-11-18T16:21:48.453Z,2.26
2023-11-18T16:24:50.518Z,2.26
2023-11-18T16:27:53.861Z,2.26
2023-11-18T16:31:00.988Z,2.31
2023-11-18T16:34:04.003Z,2.32
2023-11-18T16:37:06.091Z,2.15
2023-11-18T16:40:16.116Z,2.52
2023-11-18T16:43:18.249Z,2.40
2023-11-18T16:46:20.348Z,2.32
2023-11-18T16:49:25.105Z,2.13
2023-11-18T16:52:27.476Z,2.06
2023-11-18T16:55:32.894Z,2.11
2023-11-18T16:58:36.631Z,2.16
2023-11-18T17:01:38.895Z,2.25
2023-11-18T17:04:41.344Z,2.16
2023-11-18T17:07:44.361Z,1.94
2023-11-18T17:10:53.430Z,1.63
2023-11-18T17:13:55.579Z,1.79
2023-11-18T17:16:58.490Z,1.69
2023-11-18T17:20:01.533Z,1.60
2023-11-18T17:23:04.624Z,1.49
2023-11-18T17:26:10.201Z,1.38
2023-11-18T17:29:15.165Z,1.25
2023-11-18T17:32:17.581Z,1.14
2023-11-18T17:35:21.622Z,1.05
2023-11-18T17:38:23.941Z,1.03
2023-11-18T17:41:26.730Z,0.98
2023-11-18T17:44:29.393Z,0.81
2023-11-18T17:47:35.937Z,0.72
2023-11-18T17:50:38.607Z,0.64
2023-11-18T17:53:40.796Z,0.56
2023-11-18T17:56:43.041Z,0.54
2023-11-18T17:59:45.349Z,0.47
2023-11-18T18:02:48.474Z,0.39
2023-11-18T18:05:52.488Z,0.29
2023-11-18T18:08:55.064Z,0.15
2023-11-18T18:11:57.594Z,0.11
2023-11-18T18:15:00.238Z,0.05
2023-11-18T18:18:03.222Z,-0.07
2023-11-18T18:21:05.498Z,-0.19
2023-11-18T18:24:08.327Z,-0.27
2023-11-18T18:27:10.870Z,-0.37
2023-11-18T18:30:17.997Z,-0.44
2023-11-18T18:33:21.208Z,-0.48
2023-11-18T18:36:23.378Z,-0.57
2023-11-18T18:39:25.687Z,-0.67
2023-11-18T18:42:28.457Z,-0.73
2023-11-18T18:45:32.094Z,-0.83
2023-11-18T18:48:34.999Z,-0.93
2023-11-18T18:51:37.314Z,-1.00
2023-11-18T18:54:39.850Z,-0.97
2023-11-18T18:57:42.102Z,-1.08
2023-11-18T19:00:44.568Z,-1.19
2023-11-18T19:03:47.315Z,-1.31
2023-11-18T19:06:51.171Z,-1.42
2023-11-18T19:09:53.308Z,-1.47
2023-11-18T19:13:01.151Z,-1.49
2023-11-18T19:16:05.759Z,-1.63
2023-11-18T19:19:07.875Z,-1.57
2023-11-18T19:22:09.861Z,-1.64
2023-11-18T19:25:14.399Z,-1.66
2023-11-18T19:28:17.044Z,-1.74
2023-11-18T19:31:19.815Z,-1.75
2023-11-18T19:34:24.426Z,-1.76
2023-11-18T19:37:26.612Z,-1.82
2023-11-18T19:40:30.136Z,-1.89
2023-11-18T19:43:34.799Z,-1.91
2023-11-18T19:46:36.896Z,-1.90
2023-11-18T19:49:39.070Z,-1.96
2023-11-18T19:52:48.579Z,-2.13
2023-11-18T19:55:54.126Z,-2.04
2023-11-18T19:58:58.561Z,-2.09
2023-11-18T20:02:02.658Z,-2.14
2023-11-18T20:05:06.048Z,-2.06
2023-11-18T20:08:08.457Z,-2.10
2023-11-18T20:11:11.443Z,-2.13
2023-11-18T20:14:14.061Z,-2.19
2023-11-18T20:17:16.186Z,-2.25
2023-11-18T20:20:19.545Z,-2.26
2023-11-18T20:23:23.090Z,-2.26
2023-11-18T20:26:26.596Z,-2.28
2023-11-18T20:29:30.723Z,-2.30
2023-11-18T20:32:35.011Z,-2.30
2023-11-18T20:35:38.266Z,-2.33
2023-11-18T20:38:40.561Z,-2.39
2023-11-18T20:41:42.969Z,-2.42
2023-11-18T20:44:45.239Z,-2.43
2023-11-18T20:47:48.462Z,-2.43
2023-11-18T20:50:52.927Z,-2.65
2023-11-18T20:53:55.112Z,-2.36
2023-11-18T20:56:57.228Z,-2.54
2023-11-18T20:59:59.848Z,-2.42
2023-11-18T21:03:03.268Z,-2.45
2023-11-18T21:06:06.903Z,-2.47
2023-11-18T21:09:09.318Z,-2.46
2023-11-18T21:12:18.266Z,-2.50
2023-11-18T21:15:21.495Z,-2.47
2023-11-18T21:18:24.185Z,-2.66
2023-11-18T21:21:26.449Z,-2.45
2023-11-18T21:24:28.990Z,-2.45
2023-11-18T21:27:31.638Z,-2.41
2023-11-18T21:30:34.004Z,-2.41
2023-11-18T21:33:38.819Z,-2.42
2023-11-18T21:36:41.365Z,-2.39
2023-11-18T21:39:43.938Z,-2.35
2023-11-18T21:42:47.801Z,-2.39
2023-11-18T21:45:51.399Z,-2.35
2023-11-18T21:48:53.745Z,-2.33
2023-11-18T21:51:56.814Z,-2.28
2023-11-18T21:54:59.670Z,-2.25
2023-11-18T21:58:02.811Z,-2.23
2023-11-18T22:01:07.194Z,-2.20
2023-11-18T22:04:09.719Z,-2.26
2023-11-18T22:07:13.098Z,-2.23
2023-11-18T22:10:18.336Z,-2.06
2023-11-18T22:13:21.481Z,-2.01
2023-11-18T22:16:27.077Z,-1.96
2023-11-18T22:19:29.521Z,-1.89
2023-11-18T22:22:34.670Z,-1.83
2023-11-18T22:25:37.366Z,-1.78
2023-11-18T22:28:40.929Z,-1.72
2023-11-18T22:31:46.429Z,-1.69
2023-11-18T22:34:48.956Z,-1.59
2023-11-18T22:37:51.473Z,-1.50
2023-11-18T22:40:54.072Z,-1.41
2023-11-18T22:44:01.424Z,-1.34
2023-11-18T22:47:05.957Z,-1.30
2023-11-18T22:50:16.537Z,-1.36
2023-11-18T22:53:19.055Z,-1.24
2023-11-18T22:56:21.635Z,-1.21
2023-11-18T22:59:24.124Z,-1.19
2023-11-18T23:02:26.243Z,-1.16
2023-11-18T23:05:28.424Z,-1.11
2023-11-18T23:08:33.611Z,-1.12
2023-11-18T23:11:35.655Z,-1.02
2023-11-18T23:14:57.721Z,-1.00
2023-11-18T23:18:02.218Z,-0.99
2023-11-18T23:21:04.559Z,-0.96
2023-11-18T23:24:07.173Z,-0.93
2023-11-18T23:27:09.798Z,-0.90
2023-11-18T23:30:15.087Z,-0.89
2023-11-18T23:33:19.888Z,-0.87
2023-11-18T23:36:22.561Z,-0.87
2023-11-18T23:39:30.055Z,-0.84
2023-11-18T23:42:33.255Z,-0.82
2023-11-18T23:45:35.413Z,-0.83
2023-11-18T23:48:45.284Z,-0.77
2023-11-18T23:51:48.106Z,-0.74
2023-11-18T23:54:51.678Z,-0.71
2023-11-18T23:57:53.937Z,-0.68
